sensor_id;sensor_type;location;lat;lon;timestamp;temperature;humidity
15343;DHT22;7771;48.478;8.936;2023-10-09T00:03:23;14.30;99.90
15343;DHT22;7771;48.478;8.936;2023-10-09T00:05:51;14.30;99.90
15343;DHT22;7771;48.478;8.936;2023-10-09T00:08:17;14.20;99.90
15343;DHT22;7771;48.478;8.936;2023-10-09T00:10:45;14.30;99.90
15343;DHT22;7771;48.478;8.936;2023-10-09T00:15:40;14.20;99.90
15343;DHT22;7771;48.478;8.936;2023-10-09T00:18:07;14.20;99.90
15343;DHT22;7771;48.478;8.936;2023-10-09T00:20:36;14.20;99.90
15343;DHT22;7771;48.478;8.936;2023-10-09T00:23:02;14.10;99.90
15343;DHT22;7771;48.478;8.936;2023-10-09T00:25:29;14.10;99.90
15343;DHT22;7771;48.478;8.936;2023-10-09T00:27:57;14.10;99.90
15343;DHT22;7771;48.478;8.936;2023-10-09T00:30:24;14.10;99.90
15343;DHT22;7771;48.478;8.936;2023-10-09T00:32:51;14.10;99.90
15343;DHT22;7771;48.478;8.936;2023-10-09T00:35:26;14.10;99.90
15343;DHT22;7771;48.478;8.936;2023-10-09T00:37:58;14.10;99.90
15343;DHT22;7771;48.478;8.936;2023-10-09T00:40:30;14.10;99.90
15343;DHT22;7771;48.478;8.936;2023-10-09T00:42:54;14.00;99.90
15343;DHT22;7771;48.478;8.936;2023-10-09T00:45:20;14.00;99.90
15343;DHT22;7771;48.478;8.936;2023-10-09T00:47:48;13.90;99.90
15343;DHT22;7771;48.478;8.936;2023-10-09T00:50:15;13.90;99.90
15343;DHT22;7771;48.478;8.936;2023-10-09T00:52:44;13.80;99.90
15343;DHT22;7771;48.478;8.936;2023-10-09T00:55:10;13.80;99.90
15343;DHT22;7771;48.478;8.936;2023-10-09T00:57:38;13.80;99.90
15343;DHT22;7771;48.478;8.936;2023-10-09T01:02:34;13.80;99.90
15343;DHT22;7771;48.478;8.936;2023-10-09T01:05:03;13.80;99.90
15343;DHT22;7771;48.478;8.936;2023-10-09T01:07:29;13.80;99.90
15343;DHT22;7771;48.478;8.936;2023-10-09T01:09:56;13.80;99.90
15343;DHT22;7771;48.478;8.936;2023-10-09T01:12:23;13.70;99.90
15343;DHT22;7771;48.478;8.936;2023-10-09T01:14:51;13.60;99.90
15343;DHT22;7771;48.478;8.936;2023-10-09T01:19:45;13.70;99.90
15343;DHT22;7771;48.478;8.936;2023-10-09T01:22:13;13.60;99.90
15343;DHT22;7771;48.478;8.936;2023-10-09T01:24:39;13.60;99.90
15343;DHT22;7771;48.478;8.936;2023-10-09T01:27:06;13.60;99.90
15343;DHT22;7771;48.478;8.936;2023-10-09T01:32:15;13.60;99.90
15343;DHT22;7771;48.478;8.936;2023-10-09T01:34:44;13.50;99.90
15343;DHT22;7771;48.478;8.936;2023-10-09T01:37:12;13.50;99.90
15343;DHT22;7771;48.478;8.936;2023-10-09T01:39:39;13.50;99.90
15343;DHT22;7771;48.478;8.936;2023-10-09T01:42:06;13.60;99.90
15343;DHT22;7771;48.478;8.936;2023-10-09T01:47:02;13.70;99.90
15343;DHT22;7771;48.478;8.936;2023-10-09T01:49:28;13.70;99.90
15343;DHT22;7771;48.478;8.936;2023-10-09T01:51:57;13.70;99.90
15343;DHT22;7771;48.478;8.936;2023-10-09T01:54:26;13.70;99.90
15343;DHT22;7771;48.478;8.936;2023-10-09T01:56:54;13.60;99.90
15343;DHT22;7771;48.478;8.936;2023-10-09T01:59:22;13.60;99.90
15343;DHT22;7771;48.478;8.936;2023-10-09T02:01:48;13.70;99.90
15343;DHT22;7771;48.478;8.936;2023-10-09T02:04:16;13.70;99.90
15343;DHT22;7771;48.478;8.936;2023-10-09T02:06:44;13.80;99.90
15343;DHT22;7771;48.478;8.936;2023-10-09T02:09:10;13.90;99.90
15343;DHT22;7771;48.478;8.936;2023-10-09T02:11:38;13.90;99.90
15343;DHT22;7771;48.478;8.936;2023-10-09T02:14:07;13.90;99.90
15343;DHT22;7771;48.478;8.936;2023-10-09T02:16:39;13.90;99.90
15343;DHT22;7771;48.478;8.936;2023-10-09T02:19:06;13.70;99.90
15343;DHT22;7771;48.478;8.936;2023-10-09T02:21:32;13.60;99.90
15343;DHT22;7771;48.478;8.936;2023-10-09T02:24:02;13.60;99.90
15343;DHT22;7771;48.478;8.936;2023-10-09T02:29:13;13.60;99.90
15343;DHT22;7771;48.478;8.936;2023-10-09T02:31:41;13.60;99.90
15343;DHT22;7771;48.478;8.936;2023-10-09T02:34:07;13.50;99.90
15343;DHT22;7771;48.478;8.936;2023-10-09T02:36:36;13.50;99.90
15343;DHT22;7771;48.478;8.936;2023-10-09T02:39:05;13.50;99.90
15343;DHT22;7771;48.478;8.936;2023-10-09T02:41:33;13.50;99.90
15343;DHT22;7771;48.478;8.936;2023-10-09T02:43:59;13.50;99.90
15343;DHT22;7771;48.478;8.936;2023-10-09T02:46:27;13.50;99.90
15343;DHT22;7771;48.478;8.936;2023-10-09T02:48:56;13.50;99.90
15343;DHT22;7771;48.478;8.936;2023-10-09T02:51:23;13.50;99.90
15343;DHT22;7771;48.478;8.936;2023-10-09T02:54:02;13.50;99.90
15343;DHT22;7771;48.478;8.936;2023-10-09T02:56:28;13.50;99.90
15343;DHT22;7771;48.478;8.936;2023-10-09T02:59:00;13.40;99.90
15343;DHT22;7771;48.478;8.936;2023-10-09T03:01:28;13.40;99.90
15343;DHT22;7771;48.478;8.936;2023-10-09T03:03:55;13.40;99.90
15343;DHT22;7771;48.478;8.936;2023-10-09T03:06:23;13.40;99.90
15343;DHT22;7771;48.478;8.936;2023-10-09T03:11:18;13.40;99.90
15343;DHT22;7771;48.478;8.936;2023-10-09T03:13:44;13.40;99.90
15343;DHT22;7771;48.478;8.936;2023-10-09T03:16:12;13.30;99.90
15343;DHT22;7771;48.478;8.936;2023-10-09T03:18:42;13.30;99.90
15343;DHT22;7771;48.478;8.936;2023-10-09T03:21:10;13.30;99.90
15343;DHT22;7771;48.478;8.936;2023-10-09T03:23:37;13.30;99.90
15343;DHT22;7771;48.478;8.936;2023-10-09T03:26:06;13.30;99.90
15343;DHT22;7771;48.478;8.936;2023-10-09T03:28:32;13.20;99.90
15343;DHT22;7771;48.478;8.936;2023-10-09T03:31:00;13.30;99.90
15343;DHT22;7771;48.478;8.936;2023-10-09T03:33:27;13.20;99.90
15343;DHT22;7771;48.478;8.936;2023-10-09T03:38:22;13.30;99.90
15343;DHT22;7771;48.478;8.936;2023-10-09T03:40:49;13.20;99.90
15343;DHT22;7771;48.478;8.936;2023-10-09T03:43:16;13.30;99.90
15343;DHT22;7771;48.478;8.936;2023-10-09T03:45:43;13.30;99.90
15343;DHT22;7771;48.478;8.936;2023-10-09T03:48:12;13.40;99.90
15343;DHT22;7771;48.478;8.936;2023-10-09T03:50:41;13.30;99.90
15343;DHT22;7771;48.478;8.936;2023-10-09T03:53:07;13.20;99.90
15343;DHT22;7771;48.478;8.936;2023-10-09T03:55:35;13.10;99.90
15343;DHT22;7771;48.478;8.936;2023-10-09T03:58:01;13.10;99.90
15343;DHT22;7771;48.478;8.936;2023-10-09T04:00:29;13.10;99.90
15343;DHT22;7771;48.478;8.936;2023-10-09T04:02:55;13.10;99.90
15343;DHT22;7771;48.478;8.936;2023-10-09T04:10:20;13.10;99.90
15343;DHT22;7771;48.478;8.936;2023-10-09T04:15:21;13.10;99.90
15343;DHT22;7771;48.478;8.936;2023-10-09T04:17:48;13.10;99.90
15343;DHT22;7771;48.478;8.936;2023-10-09T04:25:26;13.20;99.90
15343;DHT22;7771;48.478;8.936;2023-10-09T04:27:54;13.20;99.90
15343;DHT22;7771;48.478;8.936;2023-10-09T04:30:22;13.20;99.90
15343;DHT22;7771;48.478;8.936;2023-10-09T04:32:48;13.20;99.90
15343;DHT22;7771;48.478;8.936;2023-10-09T04:35:15;13.20;99.90
15343;DHT22;7771;48.478;8.936;2023-10-09T04:37:46;13.10;99.90
15343;DHT22;7771;48.478;8.936;2023-10-09T04:40:14;13.00;99.90
15343;DHT22;7771;48.478;8.936;2023-10-09T04:42:42;13.10;99.90
15343;DHT22;7771;48.478;8.936;2023-10-09T04:47:46;13.10;99.90
15343;DHT22;7771;48.478;8.936;2023-10-09T04:52:51;13.10;99.90
15343;DHT22;7771;48.478;8.936;2023-10-09T04:55:18;13.10;99.90
15343;DHT22;7771;48.478;8.936;2023-10-09T04:57:46;13.00;99.90
15343;DHT22;7771;48.478;8.936;2023-10-09T05:00:13;13.00;99.90
15343;DHT22;7771;48.478;8.936;2023-10-09T05:02:55;13.10;99.90
15343;DHT22;7771;48.478;8.936;2023-10-09T05:05:24;13.10;99.90
15343;DHT22;7771;48.478;8.936;2023-10-09T05:07:57;13.10;99.90
15343;DHT22;7771;48.478;8.936;2023-10-09T05:10:23;13.10;99.90
15343;DHT22;7771;48.478;8.936;2023-10-09T05:12:51;13.10;99.90
15343;DHT22;7771;48.478;8.936;2023-10-09T05:20:21;13.10;99.90
15343;DHT22;7771;48.478;8.936;2023-10-09T05:25:45;13.00;99.90
15343;DHT22;7771;48.478;8.936;2023-10-09T05:28:18;13.00;99.90
15343;DHT22;7771;48.478;8.936;2023-10-09T05:30:51;13.10;99.90
15343;DHT22;7771;48.478;8.936;2023-10-09T05:33:19;13.10;99.90
15343;DHT22;7771;48.478;8.936;2023-10-09T05:35:51;13.10;99.90
15343;DHT22;7771;48.478;8.936;2023-10-09T05:38:25;13.10;99.90
15343;DHT22;7771;48.478;8.936;2023-10-09T05:43:20;13.10;99.90
15343;DHT22;7771;48.478;8.936;2023-10-09T05:45:52;13.10;99.90
15343;DHT22;7771;48.478;8.936;2023-10-09T05:48:35;13.20;99.90
15343;DHT22;7771;48.478;8.936;2023-10-09T05:51:20;13.10;99.90
15343;DHT22;7771;48.478;8.936;2023-10-09T05:56:22;13.10;99.90
15343;DHT22;7771;48.478;8.936;2023-10-09T05:58:54;13.10;99.90
15343;DHT22;7771;48.478;8.936;2023-10-09T06:01:27;13.10;99.90
15343;DHT22;7771;48.478;8.936;2023-10-09T06:03:59;13.10;99.90
15343;DHT22;7771;48.478;8.936;2023-10-09T06:06:31;13.10;99.90
15343;DHT22;7771;48.478;8.936;2023-10-09T06:09:02;13.10;99.90
15343;DHT22;7771;48.478;8.936;2023-10-09T06:11:34;13.20;99.90
15343;DHT22;7771;48.478;8.936;2023-10-09T06:14:01;13.20;99.90
15343;DHT22;7771;48.478;8.936;2023-10-09T06:16:30;13.20;99.90
15343;DHT22;7771;48.478;8.936;2023-10-09T06:19:02;13.30;99.90
15343;DHT22;7771;48.478;8.936;2023-10-09T06:21:45;13.40;99.90
15343;DHT22;7771;48.478;8.936;2023-10-09T06:24:17;13.40;99.90
15343;DHT22;7771;48.478;8.936;2023-10-09T06:26:45;13.40;99.90
15343;DHT22;7771;48.478;8.936;2023-10-09T06:29:18;13.50;99.90
15343;DHT22;7771;48.478;8.936;2023-10-09T06:31:45;13.50;99.90
15343;DHT22;7771;48.478;8.936;2023-10-09T06:34:17;13.50;99.90
15343;DHT22;7771;48.478;8.936;2023-10-09T06:36:45;13.60;99.90
15343;DHT22;7771;48.478;8.936;2023-10-09T06:39:11;13.70;99.90
15343;DHT22;7771;48.478;8.936;2023-10-09T06:44:11;13.80;99.90
15343;DHT22;7771;48.478;8.936;2023-10-09T06:46:39;13.90;99.90
15343;DHT22;7771;48.478;8.936;2023-10-09T06:51:41;14.10;99.90
15343;DHT22;7771;48.478;8.936;2023-10-09T06:54:08;14.10;99.90
15343;DHT22;7771;48.478;8.936;2023-10-09T06:56:35;14.20;99.90
15343;DHT22;7771;48.478;8.936;2023-10-09T06:59:04;14.20;99.90
15343;DHT22;7771;48.478;8.936;2023-10-09T07:01:31;14.30;99.90
15343;DHT22;7771;48.478;8.936;2023-10-09T07:06:46;14.40;99.90
15343;DHT22;7771;48.478;8.936;2023-10-09T07:09:16;14.40;99.90
15343;DHT22;7771;48.478;8.936;2023-10-09T07:14:12;14.40;99.90
15343;DHT22;7771;48.478;8.936;2023-10-09T07:16:45;14.50;99.90
15343;DHT22;7771;48.478;8.936;2023-10-09T07:19:31;14.60;99.90
15343;DHT22;7771;48.478;8.936;2023-10-09T07:22:15;14.60;99.90
15343;DHT22;7771;48.478;8.936;2023-10-09T07:24:42;14.70;99.90
15343;DHT22;7771;48.478;8.936;2023-10-09T07:27:11;14.80;99.90
15343;DHT22;7771;48.478;8.936;2023-10-09T07:29:38;14.90;99.90
15343;DHT22;7771;48.478;8.936;2023-10-09T07:32:11;15.00;99.90
15343;DHT22;7771;48.478;8.936;2023-10-09T07:34:38;15.00;99.90
15343;DHT22;7771;48.478;8.936;2023-10-09T07:37:11;15.10;99.90
15343;DHT22;7771;48.478;8.936;2023-10-09T07:39:38;15.20;99.90
15343;DHT22;7771;48.478;8.936;2023-10-09T07:42:05;15.40;99.90
15343;DHT22;7771;48.478;8.936;2023-10-09T07:44:37;15.50;99.90
15343;DHT22;7771;48.478;8.936;2023-10-09T07:49:39;15.70;99.90
15343;DHT22;7771;48.478;8.936;2023-10-09T07:54:35;15.90;99.90
15343;DHT22;7771;48.478;8.936;2023-10-09T07:57:03;15.90;99.90
15343;DHT22;7771;48.478;8.936;2023-10-09T07:59:35;16.00;99.90
15343;DHT22;7771;48.478;8.936;2023-10-09T08:02:03;16.10;99.90
15343;DHT22;7771;48.478;8.936;2023-10-09T08:04:31;16.20;99.90
15343;DHT22;7771;48.478;8.936;2023-10-09T08:07:05;16.20;99.90
15343;DHT22;7771;48.478;8.936;2023-10-09T08:09:31;16.30;99.90
15343;DHT22;7771;48.478;8.936;2023-10-09T08:12:04;16.30;99.90
15343;DHT22;7771;48.478;8.936;2023-10-09T08:14:51;16.40;99.90
15343;DHT22;7771;48.478;8.936;2023-10-09T08:17:18;16.40;99.90
15343;DHT22;7771;48.478;8.936;2023-10-09T08:19:48;16.50;99.90
15343;DHT22;7771;48.478;8.936;2023-10-09T08:22:23;16.60;99.90
15343;DHT22;7771;48.478;8.936;2023-10-09T08:25:04;16.60;99.90
15343;DHT22;7771;48.478;8.936;2023-10-09T08:27:32;16.70;99.90
15343;DHT22;7771;48.478;8.936;2023-10-09T08:30:08;16.80;99.90
15343;DHT22;7771;48.478;8.936;2023-10-09T08:32:41;16.80;99.90
15343;DHT22;7771;48.478;8.936;2023-10-09T08:35:09;16.90;99.90
15343;DHT22;7771;48.478;8.936;2023-10-09T08:37:42;17.00;99.90
15343;DHT22;7771;48.478;8.936;2023-10-09T08:40:09;17.10;99.90
15343;DHT22;7771;48.478;8.936;2023-10-09T08:42:36;17.20;99.90
15343;DHT22;7771;48.478;8.936;2023-10-09T08:45:03;17.30;99.90
15343;DHT22;7771;48.478;8.936;2023-10-09T08:47:31;17.40;99.90
15343;DHT22;7771;48.478;8.936;2023-10-09T08:49:58;17.40;99.90
15343;DHT22;7771;48.478;8.936;2023-10-09T08:52:25;17.50;99.90
15343;DHT22;7771;48.478;8.936;2023-10-09T08:54:51;17.50;99.90
15343;DHT22;7771;48.478;8.936;2023-10-09T08:57:18;17.60;99.90
15343;DHT22;7771;48.478;8.936;2023-10-09T08:59:45;17.80;99.90
15343;DHT22;7771;48.478;8.936;2023-10-09T09:02:11;17.90;99.90
15343;DHT22;7771;48.478;8.936;2023-10-09T09:04:39;18.10;99.90
15343;DHT22;7771;48.478;8.936;2023-10-09T09:07:22;18.20;99.90
15343;DHT22;7771;48.478;8.936;2023-10-09T09:09:33;18.30;99.90
15343;DHT22;7771;48.478;8.936;2023-10-09T09:14:36;18.60;99.90
15343;DHT22;7771;48.478;8.936;2023-10-09T09:17:04;18.70;99.90
15343;DHT22;7771;48.478;8.936;2023-10-09T09:19:31;18.80;99.90
15343;DHT22;7771;48.478;8.936;2023-10-09T09:21:57;19.00;99.90
15343;DHT22;7771;48.478;8.936;2023-10-09T09:24:25;19.20;99.90
15343;DHT22;7771;48.478;8.936;2023-10-09T09:26:54;19.30;99.90
15343;DHT22;7771;48.478;8.936;2023-10-09T09:29:40;19.40;99.90
15343;DHT22;7771;48.478;8.936;2023-10-09T09:32:09;19.60;99.90
15343;DHT22;7771;48.478;8.936;2023-10-09T09:37:18;19.90;99.90
15343;DHT22;7771;48.478;8.936;2023-10-09T09:39:39;20.00;99.90
15343;DHT22;7771;48.478;8.936;2023-10-09T09:44:34;20.30;99.90
15343;DHT22;7771;48.478;8.936;2023-10-09T09:49:30;20.50;99.90
15343;DHT22;7771;48.478;8.936;2023-10-09T09:52:01;20.70;99.90
15343;DHT22;7771;48.478;8.936;2023-10-09T09:54:27;20.90;99.90
15343;DHT22;7771;48.478;8.936;2023-10-09T09:56:55;21.10;99.90
15343;DHT22;7771;48.478;8.936;2023-10-09T09:59:24;21.20;99.90
15343;DHT22;7771;48.478;8.936;2023-10-09T10:01:49;21.40;99.90
15343;DHT22;7771;48.478;8.936;2023-10-09T10:11:52;22.10;99.90
15343;DHT22;7771;48.478;8.936;2023-10-09T10:14:19;22.30;99.90
15343;DHT22;7771;48.478;8.936;2023-10-09T10:19:58;22.50;99.90
15343;DHT22;7771;48.478;8.936;2023-10-09T10:21:55;22.70;99.90
15343;DHT22;7771;48.478;8.936;2023-10-09T10:24:41;22.90;98.90
15343;DHT22;7771;48.478;8.936;2023-10-09T10:27:15;23.10;98.30
15343;DHT22;7771;48.478;8.936;2023-10-09T10:29:45;23.20;97.70
15343;DHT22;7771;48.478;8.936;2023-10-09T10:32:12;23.40;96.70
15343;DHT22;7771;48.478;8.936;2023-10-09T10:34:53;23.50;96.30
15343;DHT22;7771;48.478;8.936;2023-10-09T10:37:36;23.60;95.70
15343;DHT22;7771;48.478;8.936;2023-10-09T10:40:02;23.60;95.50
15343;DHT22;7771;48.478;8.936;2023-10-09T10:42:29;23.70;95.40
15343;DHT22;7771;48.478;8.936;2023-10-09T10:45:01;23.80;94.80
15343;DHT22;7771;48.478;8.936;2023-10-09T10:49:58;24.10;94.00
15343;DHT22;7771;48.478;8.936;2023-10-09T10:52:25;24.30;93.70
15343;DHT22;7771;48.478;8.936;2023-10-09T10:55:11;24.40;92.70
15343;DHT22;7771;48.478;8.936;2023-10-09T11:00:19;24.60;92.60
15343;DHT22;7771;48.478;8.936;2023-10-09T11:02:51;24.70;91.60
15343;DHT22;7771;48.478;8.936;2023-10-09T11:05:19;24.80;91.30
15343;DHT22;7771;48.478;8.936;2023-10-09T11:10:21;24.90;91.30
15343;DHT22;7771;48.478;8.936;2023-10-09T11:12:48;25.00;91.00
15343;DHT22;7771;48.478;8.936;2023-10-09T11:15:31;25.00;90.80
15343;DHT22;7771;48.478;8.936;2023-10-09T11:18:02;24.90;90.80
15343;DHT22;7771;48.478;8.936;2023-10-09T11:20:28;24.90;90.70
15343;DHT22;7771;48.478;8.936;2023-10-09T11:22:55;24.90;90.70
15343;DHT22;7771;48.478;8.936;2023-10-09T11:25:29;24.90;90.40
15343;DHT22;7771;48.478;8.936;2023-10-09T11:27:59;25.00;90.20
15343;DHT22;7771;48.478;8.936;2023-10-09T11:30:31;25.00;90.20
15343;DHT22;7771;48.478;8.936;2023-10-09T11:33:04;25.00;90.20
15343;DHT22;7771;48.478;8.936;2023-10-09T11:35:31;25.00;90.20
15343;DHT22;7771;48.478;8.936;2023-10-09T11:37:58;25.10;90.30
15343;DHT22;7771;48.478;8.936;2023-10-09T11:40:30;25.10;90.20
15343;DHT22;7771;48.478;8.936;2023-10-09T11:43:00;25.20;89.90
15343;DHT22;7771;48.478;8.936;2023-10-09T11:45:27;25.20;90.00
15343;DHT22;7771;48.478;8.936;2023-10-09T11:47:57;25.30;89.50
15343;DHT22;7771;48.478;8.936;2023-10-09T11:52:58;25.30;88.10
15343;DHT22;7771;48.478;8.936;2023-10-09T11:57:53;25.30;88.30
15343;DHT22;7771;48.478;8.936;2023-10-09T12:00:20;25.20;88.20
15343;DHT22;7771;48.478;8.936;2023-10-09T12:02:52;25.20;88.50
15343;DHT22;7771;48.478;8.936;2023-10-09T12:05:20;25.20;88.70
15343;DHT22;7771;48.478;8.936;2023-10-09T12:07:47;25.20;89.00
15343;DHT22;7771;48.478;8.936;2023-10-09T12:10:13;25.20;89.30
15343;DHT22;7771;48.478;8.936;2023-10-09T12:12:41;25.20;89.00
15343;DHT22;7771;48.478;8.936;2023-10-09T12:17:50;25.20;88.60
15343;DHT22;7771;48.478;8.936;2023-10-09T12:20:18;25.20;88.40
15343;DHT22;7771;48.478;8.936;2023-10-09T12:25:33;25.10;88.30
15343;DHT22;7771;48.478;8.936;2023-10-09T12:28:00;25.10;88.50
15343;DHT22;7771;48.478;8.936;2023-10-09T12:30:29;25.00;88.60
15343;DHT22;7771;48.478;8.936;2023-10-09T12:32:57;25.00;89.20
15343;DHT22;7771;48.478;8.936;2023-10-09T12:35:24;25.00;88.70
15343;DHT22;7771;48.478;8.936;2023-10-09T12:37:53;25.00;88.90
15343;DHT22;7771;48.478;8.936;2023-10-09T12:40:22;25.00;89.00
15343;DHT22;7771;48.478;8.936;2023-10-09T12:42:52;25.00;88.60
15343;DHT22;7771;48.478;8.936;2023-10-09T12:45:18;25.00;88.40
15343;DHT22;7771;48.478;8.936;2023-10-09T12:47:45;25.10;88.00
15343;DHT22;7771;48.478;8.936;2023-10-09T12:50:13;25.10;88.00
15343;DHT22;7771;48.478;8.936;2023-10-09T12:52:40;25.10;88.20
15343;DHT22;7771;48.478;8.936;2023-10-09T12:55:06;25.10;88.30
15343;DHT22;7771;48.478;8.936;2023-10-09T12:57:34;25.20;88.60
15343;DHT22;7771;48.478;8.936;2023-10-09T13:00:01;25.20;88.20
15343;DHT22;7771;48.478;8.936;2023-10-09T13:02:28;25.30;88.10
15343;DHT22;7771;48.478;8.936;2023-10-09T13:04:56;25.40;87.60
15343;DHT22;7771;48.478;8.936;2023-10-09T13:07:22;25.40;87.60
15343;DHT22;7771;48.478;8.936;2023-10-09T13:09:49;25.50;87.60
15343;DHT22;7771;48.478;8.936;2023-10-09T13:12:22;25.50;87.50
15343;DHT22;7771;48.478;8.936;2023-10-09T13:14:49;25.60;87.10
15343;DHT22;7771;48.478;8.936;2023-10-09T13:17:16;25.60;86.90
15343;DHT22;7771;48.478;8.936;2023-10-09T13:19:44;25.70;86.10
15343;DHT22;7771;48.478;8.936;2023-10-09T13:22:12;25.70;86.10
15343;DHT22;7771;48.478;8.936;2023-10-09T13:24:40;25.80;86.00
15343;DHT22;7771;48.478;8.936;2023-10-09T13:27:06;25.90;86.00
15343;DHT22;7771;48.478;8.936;2023-10-09T13:29:34;25.90;86.00
15343;DHT22;7771;48.478;8.936;2023-10-09T13:32:02;25.90;86.00
15343;DHT22;7771;48.478;8.936;2023-10-09T13:34:30;26.00;85.80
15343;DHT22;7771;48.478;8.936;2023-10-09T13:36:56;25.90;85.60
15343;DHT22;7771;48.478;8.936;2023-10-09T13:39:25;26.00;84.40
15343;DHT22;7771;48.478;8.936;2023-10-09T13:41:52;26.00;84.50
15343;DHT22;7771;48.478;8.936;2023-10-09T13:44:27;25.90;84.50
15343;DHT22;7771;48.478;8.936;2023-10-09T13:46:55;25.90;84.70
15343;DHT22;7771;48.478;8.936;2023-10-09T13:49:21;25.90;84.80
15343;DHT22;7771;48.478;8.936;2023-10-09T13:51:50;25.90;84.60
15343;DHT22;7771;48.478;8.936;2023-10-09T13:54:16;25.90;84.10
15343;DHT22;7771;48.478;8.936;2023-10-09T13:56:48;25.90;84.10
15343;DHT22;7771;48.478;8.936;2023-10-09T13:59:14;25.90;81.00
15343;DHT22;7771;48.478;8.936;2023-10-09T14:01:41;25.80;79.00
15343;DHT22;7771;48.478;8.936;2023-10-09T14:04:08;25.80;78.00
15343;DHT22;7771;48.478;8.936;2023-10-09T14:09:03;25.60;76.80
15343;DHT22;7771;48.478;8.936;2023-10-09T14:11:31;25.60;77.10
15343;DHT22;7771;48.478;8.936;2023-10-09T14:13:59;25.60;76.20
15343;DHT22;7771;48.478;8.936;2023-10-09T14:16:27;25.60;76.10
15343;DHT22;7771;48.478;8.936;2023-10-09T14:18:55;25.50;76.00
15343;DHT22;7771;48.478;8.936;2023-10-09T14:21:24;25.50;76.10
15343;DHT22;7771;48.478;8.936;2023-10-09T14:23:50;25.40;75.60
15343;DHT22;7771;48.478;8.936;2023-10-09T14:26:17;25.40;76.80
15343;DHT22;7771;48.478;8.936;2023-10-09T14:28:44;25.40;76.30
15343;DHT22;7771;48.478;8.936;2023-10-09T14:31:11;25.40;76.20
15343;DHT22;7771;48.478;8.936;2023-10-09T14:33:38;25.30;76.60
15343;DHT22;7771;48.478;8.936;2023-10-09T14:36:04;25.20;77.40
15343;DHT22;7771;48.478;8.936;2023-10-09T14:38:31;25.20;78.10
15343;DHT22;7771;48.478;8.936;2023-10-09T14:40:58;25.20;78.50
15343;DHT22;7771;48.478;8.936;2023-10-09T14:45:54;25.10;78.50
15343;DHT22;7771;48.478;8.936;2023-10-09T14:48:21;25.00;78.80
15343;DHT22;7771;48.478;8.936;2023-10-09T14:50:53;25.00;79.30
15343;DHT22;7771;48.478;8.936;2023-10-09T14:53:20;25.00;79.20
15343;DHT22;7771;48.478;8.936;2023-10-09T14:55:53;24.90;79.50
15343;DHT22;7771;48.478;8.936;2023-10-09T14:58:14;24.90;79.60
15343;DHT22;7771;48.478;8.936;2023-10-09T15:00:40;24.80;79.50
15343;DHT22;7771;48.478;8.936;2023-10-09T15:03:08;24.80;79.70
15343;DHT22;7771;48.478;8.936;2023-10-09T15:05:36;24.70;79.70
15343;DHT22;7771;48.478;8.936;2023-10-09T15:08:02;24.60;80.00
15343;DHT22;7771;48.478;8.936;2023-10-09T15:10:29;24.60;80.50
15343;DHT22;7771;48.478;8.936;2023-10-09T15:12:56;24.60;80.80
15343;DHT22;7771;48.478;8.936;2023-10-09T15:15:23;24.60;81.10
15343;DHT22;7771;48.478;8.936;2023-10-09T15:17:50;24.60;81.30
15343;DHT22;7771;48.478;8.936;2023-10-09T15:20:16;24.50;81.50
15343;DHT22;7771;48.478;8.936;2023-10-09T15:22:53;24.60;81.70
15343;DHT22;7771;48.478;8.936;2023-10-09T15:25:20;24.60;81.60
15343;DHT22;7771;48.478;8.936;2023-10-09T15:27:47;24.60;82.40
15343;DHT22;7771;48.478;8.936;2023-10-09T15:30:14;24.60;82.70
15343;DHT22;7771;48.478;8.936;2023-10-09T15:32:42;24.50;82.50
15343;DHT22;7771;48.478;8.936;2023-10-09T15:35:08;24.50;82.80
15343;DHT22;7771;48.478;8.936;2023-10-09T15:37:37;24.50;83.10
15343;DHT22;7771;48.478;8.936;2023-10-09T15:40:05;24.50;83.30
15343;DHT22;7771;48.478;8.936;2023-10-09T15:42:32;24.40;83.60
15343;DHT22;7771;48.478;8.936;2023-10-09T15:47:28;24.40;84.30
15343;DHT22;7771;48.478;8.936;2023-10-09T15:49:56;24.40;84.50
15343;DHT22;7771;48.478;8.936;2023-10-09T15:52:23;24.30;84.70
15343;DHT22;7771;48.478;8.936;2023-10-09T15:57:20;24.20;85.30
15343;DHT22;7771;48.478;8.936;2023-10-09T15:59:47;24.20;85.60
15343;DHT22;7771;48.478;8.936;2023-10-09T16:02:14;24.10;86.00
15343;DHT22;7771;48.478;8.936;2023-10-09T16:04:41;24.10;86.30
15343;DHT22;7771;48.478;8.936;2023-10-09T16:07:08;24.00;86.60
15343;DHT22;7771;48.478;8.936;2023-10-09T16:12:04;23.90;87.40
15343;DHT22;7771;48.478;8.936;2023-10-09T16:14:31;23.80;87.70
15343;DHT22;7771;48.478;8.936;2023-10-09T16:19:25;23.70;88.20
15343;DHT22;7771;48.478;8.936;2023-10-09T16:21:54;23.60;89.00
15343;DHT22;7771;48.478;8.936;2023-10-09T16:24:21;23.60;88.90
15343;DHT22;7771;48.478;8.936;2023-10-09T16:26:47;23.50;89.00
15343;DHT22;7771;48.478;8.936;2023-10-09T16:29:15;23.50;89.50
15343;DHT22;7771;48.478;8.936;2023-10-09T16:31:41;23.40;89.60
15343;DHT22;7771;48.478;8.936;2023-10-09T16:34:09;23.40;90.00
15343;DHT22;7771;48.478;8.936;2023-10-09T16:36:37;23.30;90.30
15343;DHT22;7771;48.478;8.936;2023-10-09T16:39:05;23.20;90.60
15343;DHT22;7771;48.478;8.936;2023-10-09T16:41:31;23.10;90.90
15343;DHT22;7771;48.478;8.936;2023-10-09T16:43:59;23.10;91.20
15343;DHT22;7771;48.478;8.936;2023-10-09T16:46:27;23.00;91.40
15343;DHT22;7771;48.478;8.936;2023-10-09T16:48:55;22.90;91.60
15343;DHT22;7771;48.478;8.936;2023-10-09T16:51:21;22.80;91.80
15343;DHT22;7771;48.478;8.936;2023-10-09T16:53:48;22.70;92.00
15343;DHT22;7771;48.478;8.936;2023-10-09T16:56:22;22.60;92.20
15343;DHT22;7771;48.478;8.936;2023-10-09T16:58:49;22.50;92.70
15343;DHT22;7771;48.478;8.936;2023-10-09T17:01:16;22.40;93.10
15343;DHT22;7771;48.478;8.936;2023-10-09T17:03:42;22.30;93.40
15343;DHT22;7771;48.478;8.936;2023-10-09T17:06:10;22.20;93.60
15343;DHT22;7771;48.478;8.936;2023-10-09T17:08:38;22.10;93.80
15343;DHT22;7771;48.478;8.936;2023-10-09T17:11:14;22.00;94.00
15343;DHT22;7771;48.478;8.936;2023-10-09T17:13:41;21.80;94.10
15343;DHT22;7771;48.478;8.936;2023-10-09T17:16:13;21.70;94.20
15343;DHT22;7771;48.478;8.936;2023-10-09T17:18:39;21.70;94.50
15343;DHT22;7771;48.478;8.936;2023-10-09T17:21:07;21.60;94.70
15343;DHT22;7771;48.478;8.936;2023-10-09T17:23:34;21.40;94.90
15343;DHT22;7771;48.478;8.936;2023-10-09T17:26:02;21.30;95.00
15343;DHT22;7771;48.478;8.936;2023-10-09T17:28:29;21.20;95.20
15343;DHT22;7771;48.478;8.936;2023-10-09T17:31:00;21.20;95.80
15343;DHT22;7771;48.478;8.936;2023-10-09T17:33:31;21.10;95.80
15343;DHT22;7771;48.478;8.936;2023-10-09T17:35:59;21.00;96.10
15343;DHT22;7771;48.478;8.936;2023-10-09T17:38:26;20.80;96.30
15343;DHT22;7771;48.478;8.936;2023-10-09T17:40:53;20.70;96.40
15343;DHT22;7771;48.478;8.936;2023-10-09T17:45:48;20.50;96.60
15343;DHT22;7771;48.478;8.936;2023-10-09T17:48:16;20.40;96.80
15343;DHT22;7771;48.478;8.936;2023-10-09T17:50:44;20.30;96.90
15343;DHT22;7771;48.478;8.936;2023-10-09T17:53:12;20.20;97.10
15343;DHT22;7771;48.478;8.936;2023-10-09T17:55:40;20.10;97.40
15343;DHT22;7771;48.478;8.936;2023-10-09T17:58:07;20.10;97.30